sensor_id;sensor_type;location;lat;lon;timestamp;temperature;humidity
72355;SHT30;60314;55.040;73.076;2022-11-20T00:01:31;-17.19;73.46
72355;SHT30;60314;55.040;73.076;2022-11-20T00:04:08;-17.19;73.05
72355;SHT30;60314;55.040;73.076;2022-11-20T00:06:36;-17.22;73.21
72355;SHT30;60314;55.040;73.076;2022-11-20T00:09:03;-17.29;72.57
72355;SHT30;60314;55.040;73.076;2022-11-20T00:11:31;-17.26;72.53
72355;SHT30;60314;55.040;73.076;2022-11-20T00:14:00;-17.34;71.70
72355;SHT30;60314;55.040;73.076;2022-11-20T00:16:28;-17.34;71.87
72355;SHT30;60314;55.040;73.076;2022-11-20T00:19:00;-17.35;71.65
72355;SHT30;60314;55.040;73.076;2022-11-20T00:21:28;-17.34;71.96
72355;SHT30;60314;55.040;73.076;2022-11-20T00:23:56;-17.36;72.13
72355;SHT30;60314;55.040;73.076;2022-11-20T00:26:25;-17.38;71.84
72355;SHT30;60314;55.040;73.076;2022-11-20T00:29:00;-17.45;71.23
72355;SHT30;60314;55.040;73.076;2022-11-20T00:31:31;-17.47;71.10
72355;SHT30;60314;55.040;73.076;2022-11-20T00:33:59;-17.49;70.95
72355;SHT30;60314;55.040;73.076;2022-11-20T00:36:27;-17.59;71.15
72355;SHT30;60314;55.040;73.076;2022-11-20T00:38:55;-17.67;71.27
72355;SHT30;60314;55.040;73.076;2022-11-20T00:41:23;-17.62;71.40
72355;SHT30;60314;55.040;73.076;2022-11-20T00:43:54;-17.60;70.86
72355;SHT30;60314;55.040;73.076;2022-11-20T00:46:23;-17.66;70.30
72355;SHT30;60314;55.040;73.076;2022-11-20T00:48:49;-17.73;70.00
72355;SHT30;60314;55.040;73.076;2022-11-20T00:51:18;-17.76;69.43
72355;SHT30;60314;55.040;73.076;2022-11-20T00:53:51;-17.88;69.15
72355;SHT30;60314;55.040;73.076;2022-11-20T00:56:18;-17.95;69.85
72355;SHT30;60314;55.040;73.076;2022-11-20T00:58:54;-18.05;69.30
72355;SHT30;60314;55.040;73.076;2022-11-20T01:01:23;-18.12;69.99
72355;SHT30;60314;55.040;73.076;2022-11-20T01:04:00;-18.21;69.81
72355;SHT30;60314;55.040;73.076;2022-11-20T01:06:35;-18.25;70.58
72355;SHT30;60314;55.040;73.076;2022-11-20T01:09:07;-18.12;71.45
72355;SHT30;60314;55.040;73.076;2022-11-20T01:11:45;-18.18;70.15
72355;SHT30;60314;55.040;73.076;2022-11-20T01:14:17;-18.26;69.78
72355;SHT30;60314;55.040;73.076;2022-11-20T01:16:46;-18.33;70.15
72355;SHT30;60314;55.040;73.076;2022-11-20T01:19:17;-18.33;70.35
72355;SHT30;60314;55.040;73.076;2022-11-20T01:21:46;-18.29;70.08
72355;SHT30;60314;55.040;73.076;2022-11-20T01:24:15;-18.24;69.49
72355;SHT30;60314;55.040;73.076;2022-11-20T01:26:46;-18.31;69.32
72355;SHT30;60314;55.040;73.076;2022-11-20T01:29:21;-18.35;69.72
72355;SHT30;60314;55.040;73.076;2022-11-20T01:31:48;-18.42;69.98
72355;SHT30;60314;55.040;73.076;2022-11-20T01:34:19;-18.42;70.15
72355;SHT30;60314;55.040;73.076;2022-11-20T01:36:46;-18.33;70.80
72355;SHT30;60314;55.040;73.076;2022-11-20T01:39:21;-18.29;70.33
72355;SHT30;60314;55.040;73.076;2022-11-20T01:41:49;-18.21;70.92
72355;SHT30;60314;55.040;73.076;2022-11-20T01:44:50;-18.33;69.77
72355;SHT30;60314;55.040;73.076;2022-11-20T01:47:25;-18.41;70.85
72355;SHT30;60314;55.040;73.076;2022-11-20T01:50:05;-18.51;69.74
72355;SHT30;60314;55.040;73.076;2022-11-20T01:52:37;-18.60;69.45
72355;SHT30;60314;55.040;73.076;2022-11-20T01:55:08;-18.53;70.10
72355;SHT30;60314;55.040;73.076;2022-11-20T01:57:35;-18.42;71.09
72355;SHT30;60314;55.040;73.076;2022-11-20T02:00:10;-18.41;70.54
72355;SHT30;60314;55.040;73.076;2022-11-20T02:02:43;-18.39;69.53
72355;SHT30;60314;55.040;73.076;2022-11-20T02:08:10;-18.52;68.94
72355;SHT30;60314;55.040;73.076;2022-11-20T02:10:47;-18.56;68.93
72355;SHT30;60314;55.040;73.076;2022-11-20T02:13:13;-18.55;69.46
72355;SHT30;60314;55.040;73.076;2022-11-20T02:15:59;-18.52;69.86
72355;SHT30;60314;55.040;73.076;2022-11-20T02:18:31;-18.51;70.14
72355;SHT30;60314;55.040;73.076;2022-11-20T02:26:30;-18.76;70.35
72355;SHT30;60314;55.040;73.076;2022-11-20T02:28:59;-18.81;71.15
72355;SHT30;60314;55.040;73.076;2022-11-20T02:31:26;-18.72;71.61
72355;SHT30;60314;55.040;73.076;2022-11-20T02:33:56;-18.59;71.89
72355;SHT30;60314;55.040;73.076;2022-11-20T02:36:23;-18.62;71.80
72355;SHT30;60314;55.040;73.076;2022-11-20T02:38:55;-18.53;72.04
72355;SHT30;60314;55.040;73.076;2022-11-20T02:41:34;-18.42;72.36
72355;SHT30;60314;55.040;73.076;2022-11-20T02:44:03;-18.36;72.62
72355;SHT30;60314;55.040;73.076;2022-11-20T02:46:31;-18.26;72.68
72355;SHT30;60314;55.040;73.076;2022-11-20T02:49:04;-18.19;72.56
72355;SHT30;60314;55.040;73.076;2022-11-20T02:51:35;-18.17;72.48
72355;SHT30;60314;55.040;73.076;2022-11-20T02:54:02;-18.22;72.47
72355;SHT30;60314;55.040;73.076;2022-11-20T02:56:30;-18.19;72.68
72355;SHT30;60314;55.040;73.076;2022-11-20T02:59:07;-18.12;72.75
72355;SHT30;60314;55.040;73.076;2022-11-20T03:01:35;-18.08;72.45
72355;SHT30;60314;55.040;73.076;2022-11-20T03:04:02;-18.07;72.40
72355;SHT30;60314;55.040;73.076;2022-11-20T03:06:29;-17.98;72.41
72355;SHT30;60314;55.040;73.076;2022-11-20T03:08:59;-17.91;72.47
72355;SHT30;60314;55.040;73.076;2022-11-20T03:11:35;-17.74;72.88
72355;SHT30;60314;55.040;73.076;2022-11-20T03:14:06;-17.65;72.48
72355;SHT30;60314;55.040;73.076;2022-11-20T03:16:40;-17.57;72.33
72355;SHT30;60314;55.040;73.076;2022-11-20T03:19:08;-17.53;72.68
72355;SHT30;60314;55.040;73.076;2022-11-20T03:21:44;-17.45;72.44
72355;SHT30;60314;55.040;73.076;2022-11-20T03:24:10;-17.40;72.60
72355;SHT30;60314;55.040;73.076;2022-11-20T03:26:38;-17.29;72.86
72355;SHT30;60314;55.040;73.076;2022-11-20T03:29:05;-17.26;72.62
72355;SHT30;60314;55.040;73.076;2022-11-20T03:31:35;-17.18;72.68
72355;SHT30;60314;55.040;73.076;2022-11-20T03:34:03;-17.15;72.67
72355;SHT30;60314;55.040;73.076;2022-11-20T03:36:40;-17.05;72.67
72355;SHT30;60314;55.040;73.076;2022-11-20T03:39:09;-16.94;73.05
72355;SHT30;60314;55.040;73.076;2022-11-20T03:41:38;-16.88;72.85
72355;SHT30;60314;55.040;73.076;2022-11-20T03:44:11;-16.77;72.93
72355;SHT30;60314;55.040;73.076;2022-11-20T03:46:42;-16.65;72.65
72355;SHT30;60314;55.040;73.076;2022-11-20T03:49:08;-16.60;72.58
72355;SHT30;60314;55.040;73.076;2022-11-20T03:51:35;-16.59;72.71
72355;SHT30;60314;55.040;73.076;2022-11-20T03:54:06;-16.53;73.11
72355;SHT30;60314;55.040;73.076;2022-11-20T03:56:37;-16.42;73.07
72355;SHT30;60314;55.040;73.076;2022-11-20T03:59:04;-16.33;73.12
72355;SHT30;60314;55.040;73.076;2022-11-20T04:01:33;-16.28;73.06
72355;SHT30;60314;55.040;73.076;2022-11-20T04:04:05;-16.18;73.20
72355;SHT30;60314;55.040;73.076;2022-11-20T04:06:37;-16.18;73.08
72355;SHT30;60314;55.040;73.076;2022-11-20T04:09:04;-16.09;73.43
72355;SHT30;60314;55.040;73.076;2022-11-20T04:11:33;-16.05;73.35
72355;SHT30;60314;55.040;73.076;2022-11-20T04:14:11;-15.92;73.23
72355;SHT30;60314;55.040;73.076;2022-11-20T04:16:38;-15.84;73.20
72355;SHT30;60314;55.040;73.076;2022-11-20T04:19:06;-15.78;73.14
72355;SHT30;60314;55.040;73.076;2022-11-20T04:21:35;-15.68;73.21
72355;SHT30;60314;55.040;73.076;2022-11-20T04:24:02;-15.66;73.24
72355;SHT30;60314;55.040;73.076;2022-11-20T04:26:40;-15.50;73.28
72355;SHT30;60314;55.040;73.076;2022-11-20T04:29:10;-15.37;73.00
72355;SHT30;60314;55.040;73.076;2022-11-20T04:31:37;-15.29;72.96
72355;SHT30;60314;55.040;73.076;2022-11-20T04:34:06;-15.19;72.93
72355;SHT30;60314;55.040;73.076;2022-11-20T04:36:33;-15.15;73.13
72355;SHT30;60314;55.040;73.076;2022-11-20T04:39:05;-15.04;72.85
72355;SHT30;60314;55.040;73.076;2022-11-20T04:41:33;-14.98;72.84
72355;SHT30;60314;55.040;73.076;2022-11-20T04:44:01;-14.83;72.47
72355;SHT30;60314;55.040;73.076;2022-11-20T04:46:34;-14.78;72.73
72355;SHT30;60314;55.040;73.076;2022-11-20T04:49:01;-14.65;73.01
72355;SHT30;60314;55.040;73.076;2022-11-20T04:51:28;-14.52;72.90
72355;SHT30;60314;55.040;73.076;2022-11-20T04:53:59;-14.37;72.32
72355;SHT30;60314;55.040;73.076;2022-11-20T04:56:26;-14.28;72.43
72355;SHT30;60314;55.040;73.076;2022-11-20T04:58:52;-14.19;72.27
72355;SHT30;60314;55.040;73.076;2022-11-20T05:01:23;-13.98;72.24
72355;SHT30;60314;55.040;73.076;2022-11-20T05:03:51;-13.77;71.81
72355;SHT30;60314;55.040;73.076;2022-11-20T05:06:20;-13.67;71.07
72355;SHT30;60314;55.040;73.076;2022-11-20T05:08:47;-13.57;71.25
72355;SHT30;60314;55.040;73.076;2022-11-20T05:11:24;-13.41;71.63
72355;SHT30;60314;55.040;73.076;2022-11-20T05:13:58;-13.26;71.35
72355;SHT30;60314;55.040;73.076;2022-11-20T05:16:25;-13.13;70.89
72355;SHT30;60314;55.040;73.076;2022-11-20T05:18:59;-13.03;70.44
72355;SHT30;60314;55.040;73.076;2022-11-20T05:21:25;-12.98;70.09
72355;SHT30;60314;55.040;73.076;2022-11-20T05:23:52;-12.89;70.65
72355;SHT30;60314;55.040;73.076;2022-11-20T05:26:26;-12.84;69.86
72355;SHT30;60314;55.040;73.076;2022-11-20T05:29:06;-12.86;69.27
72355;SHT30;60314;55.040;73.076;2022-11-20T05:31:33;-12.81;69.74
72355;SHT30;60314;55.040;73.076;2022-11-20T05:33:59;-12.78;69.83
72355;SHT30;60314;55.040;73.076;2022-11-20T05:36:26;-12.67;70.14
72355;SHT30;60314;55.040;73.076;2022-11-20T05:38:52;-12.64;69.48
72355;SHT30;60314;55.040;73.076;2022-11-20T05:41:20;-12.54;70.13
72355;SHT30;60314;55.040;73.076;2022-11-20T05:43:48;-12.48;68.96
72355;SHT30;60314;55.040;73.076;2022-11-20T05:46:18;-12.54;68.24
72355;SHT30;60314;55.040;73.076;2022-11-20T05:48:45;-12.48;68.63
72355;SHT30;60314;55.040;73.076;2022-11-20T05:51:23;-12.53;68.19
72355;SHT30;60314;55.040;73.076;2022-11-20T05:53:51;-12.48;68.24
72355;SHT30;60314;55.040;73.076;2022-11-20T05:56:20;-12.43;67.85
72355;SHT30;60314;55.040;73.076;2022-11-20T05:58:51;-12.43;68.22
72355;SHT30;60314;55.040;73.076;2022-11-20T06:01:22;-12.32;68.42
72355;SHT30;60314;55.040;73.076;2022-11-20T06:03:50;-12.23;68.10
72355;SHT30;60314;55.040;73.076;2022-11-20T06:06:26;-12.17;67.92
72355;SHT30;60314;55.040;73.076;2022-11-20T06:08:54;-12.23;68.18
72355;SHT30;60314;55.040;73.076;2022-11-20T06:11:21;-12.13;69.00
72355;SHT30;60314;55.040;73.076;2022-11-20T06:13:51;-12.09;69.02
72355;SHT30;60314;55.040;73.076;2022-11-20T06:16:18;-11.93;68.91
72355;SHT30;60314;55.040;73.076;2022-11-20T06:18:46;-11.90;69.26
72355;SHT30;60314;55.040;73.076;2022-11-20T06:21:23;-11.82;69.39
72355;SHT30;60314;55.040;73.076;2022-11-20T06:23:51;-11.78;69.67
72355;SHT30;60314;55.040;73.076;2022-11-20T06:26:23;-11.78;69.56
72355;SHT30;60314;55.040;73.076;2022-11-20T06:28:51;-11.81;69.53
72355;SHT30;60314;55.040;73.076;2022-11-20T06:31:20;-11.75;69.68
72355;SHT30;60314;55.040;73.076;2022-11-20T06:33:47;-11.82;69.59
72355;SHT30;60314;55.040;73.076;2022-11-20T06:36:16;-11.79;70.30
72355;SHT30;60314;55.040;73.076;2022-11-20T06:38:44;-11.68;70.29
72355;SHT30;60314;55.040;73.076;2022-11-20T06:41:14;-11.63;70.00
72355;SHT30;60314;55.040;73.076;2022-11-20T06:43:40;-11.61;70.39
72355;SHT30;60314;55.040;73.076;2022-11-20T06:46:13;-11.56;70.26
72355;SHT30;60314;55.040;73.076;2022-11-20T06:48:40;-11.58;69.78
72355;SHT30;60314;55.040;73.076;2022-11-20T06:51:07;-11.51;70.59
72355;SHT30;60314;55.040;73.076;2022-11-20T06:53:34;-11.50;70.06
72355;SHT30;60314;55.040;73.076;2022-11-20T06:56:00;-11.41;70.37
72355;SHT30;60314;55.040;73.076;2022-11-20T06:58:29;-11.35;69.64
72355;SHT30;60314;55.040;73.076;2022-11-20T07:01:22;-11.32;69.83
72355;SHT30;60314;55.040;73.076;2022-11-20T07:03:58;-11.27;70.04
72355;SHT30;60314;55.040;73.076;2022-11-20T07:06:25;-11.24;69.66
72355;SHT30;60314;55.040;73.076;2022-11-20T07:08:51;-11.20;69.45
72355;SHT30;60314;55.040;73.076;2022-11-20T07:11:21;-11.10;69.65
72355;SHT30;60314;55.040;73.076;2022-11-20T07:13:47;-11.03;68.92
72355;SHT30;60314;55.040;73.076;2022-11-20T07:16:14;-11.07;69.07
72355;SHT30;60314;55.040;73.076;2022-11-20T07:18:45;-11.01;69.86
72355;SHT30;60314;55.040;73.076;2022-11-20T07:21:12;-10.96;69.28
72355;SHT30;60314;55.040;73.076;2022-11-20T07:23:38;-10.89;69.34
72355;SHT30;60314;55.040;73.076;2022-11-20T07:26:08;-10.82;69.23
72355;SHT30;60314;55.040;73.076;2022-11-20T07:28:40;-10.82;68.86
72355;SHT30;60314;55.040;73.076;2022-11-20T07:31:09;-10.77;69.04
72355;SHT30;60314;55.040;73.076;2022-11-20T07:33:36;-10.83;68.99
72355;SHT30;60314;55.040;73.076;2022-11-20T07:36:03;-10.95;68.83
72355;SHT30;60314;55.040;73.076;2022-11-20T07:38:39;-10.95;69.25
72355;SHT30;60314;55.040;73.076;2022-11-20T07:41:12;-11.00;69.19
72355;SHT30;60314;55.040;73.076;2022-11-20T07:43:39;-11.01;68.98
72355;SHT30;60314;55.040;73.076;2022-11-20T07:46:06;-10.95;69.57
72355;SHT30;60314;55.040;73.076;2022-11-20T07:48:42;-10.87;69.38
72355;SHT30;60314;55.040;73.076;2022-11-20T07:51:18;-10.79;69.00
72355;SHT30;60314;55.040;73.076;2022-11-20T07:53:45;-10.79;68.87
72355;SHT30;60314;55.040;73.076;2022-11-20T07:56:12;-10.86;68.16
72355;SHT30;60314;55.040;73.076;2022-11-20T07:58:40;-10.87;68.54
72355;SHT30;60314;55.040;73.076;2022-11-20T08:01:07;-10.93;68.53
72355;SHT30;60314;55.040;73.076;2022-11-20T08:03:34;-10.93;68.85
72355;SHT30;60314;55.040;73.076;2022-11-20T08:06:04;-10.90;68.57
72355;SHT30;60314;55.040;73.076;2022-11-20T08:08:30;-10.84;69.00
72355;SHT30;60314;55.040;73.076;2022-11-20T08:10:57;-10.75;68.72
72355;SHT30;60314;55.040;73.076;2022-11-20T08:13:44;-10.66;68.39
72355;SHT30;60314;55.040;73.076;2022-11-20T08:16:29;-10.62;68.11
72355;SHT30;60314;55.040;73.076;2022-11-20T08:18:56;-10.50;68.11
72355;SHT30;60314;55.040;73.076;2022-11-20T08:21:23;-10.52;67.82
72355;SHT30;60314;55.040;73.076;2022-11-20T08:24:00;-10.50;68.45
72355;SHT30;60314;55.040;73.076;2022-11-20T08:26:31;-10.48;67.46
72355;SHT30;60314;55.040;73.076;2022-11-20T08:29:24;-10.56;66.73
72355;SHT30;60314;55.040;73.076;2022-11-20T08:31:50;-10.56;67.12
72355;SHT30;60314;55.040;73.076;2022-11-20T08:34:17;-10.48;67.51
72355;SHT30;60314;55.040;73.076;2022-11-20T08:36:49;-10.42;66.82
72355;SHT30;60314;55.040;73.076;2022-11-20T08:39:20;-10.29;66.56
72355;SHT30;60314;55.040;73.076;2022-11-20T08:41:47;-10.25;66.03
72355;SHT30;60314;55.040;73.076;2022-11-20T08:44:13;-10.28;65.86
72355;SHT30;60314;55.040;73.076;2022-11-20T08:46:41;-10.24;65.71
72355;SHT30;60314;55.040;73.076;2022-11-20T08:49:12;-10.27;65.03
72355;SHT30;60314;55.040;73.076;2022-11-20T08:51:40;-10.32;65.02
72355;SHT30;60314;55.040;73.076;2022-11-20T08:54:17;-10.31;65.29
72355;SHT30;60314;55.040;73.076;2022-11-20T08:56:45;-10.25;65.64
72355;SHT30;60314;55.040;73.076;2022-11-20T08:59:22;-10.21;65.00
72355;SHT30;60314;55.040;73.076;2022-11-20T09:01:59;-10.17;64.78
72355;SHT30;60314;55.040;73.076;2022-11-20T09:04:25;-10.27;64.54
72355;SHT30;60314;55.040;73.076;2022-11-20T09:06:52;-10.24;65.03
72355;SHT30;60314;55.040;73.076;2022-11-20T09:09:19;-10.22;64.42
72355;SHT30;60314;55.040;73.076;2022-11-20T09:11:45;-10.25;64.37
72355;SHT30;60314;55.040;73.076;2022-11-20T09:14:12;-10.35;64.25
72355;SHT30;60314;55.040;73.076;2022-11-20T09:16:39;-10.42;64.38
72355;SHT30;60314;55.040;73.076;2022-11-20T09:19:13;-10.37;64.38
72355;SHT30;60314;55.040;73.076;2022-11-20T09:21:53;-10.44;64.12
72355;SHT30;60314;55.040;73.076;2022-11-20T09:24:19;-10.45;64.56
72355;SHT30;60314;55.040;73.076;2022-11-20T09:27:01;-10.38;64.86
72355;SHT30;60314;55.040;73.076;2022-11-20T09:29:28;-10.44;64.39
72355;SHT30;60314;55.040;73.076;2022-11-20T09:32:05;-10.45;64.38
72355;SHT30;60314;55.040;73.076;2022-11-20T09:34:32;-10.53;64.34
72355;SHT30;60314;55.040;73.076;2022-11-20T09:37:03;-10.53;65.04
72355;SHT30;60314;55.040;73.076;2022-11-20T09:39:40;-10.60;65.22
72355;SHT30;60314;55.040;73.076;2022-11-20T09:55:37;-10.70;66.39
72355;SHT30;60314;55.040;73.076;2022-11-20T10:01:02;-10.66;66.31
72355;SHT30;60314;55.040;73.076;2022-11-20T10:06:39;-10.70;66.30
72355;SHT30;60314;55.040;73.076;2022-11-20T10:12:11;-10.73;66.44
72355;SHT30;60314;55.040;73.076;2022-11-20T10:14:46;-10.75;66.78
72355;SHT30;60314;55.040;73.076;2022-11-20T10:20:46;-10.72;67.09
72355;SHT30;60314;55.040;73.076;2022-11-20T10:23:23;-10.77;66.85
72355;SHT30;60314;55.040;73.076;2022-11-20T10:31:51;-10.83;67.19
72355;SHT30;60314;55.040;73.076;2022-11-20T10:34:26;-10.89;67.00
72355;SHT30;60314;55.040;73.076;2022-11-20T10:36:56;-10.90;67.04
72355;SHT30;60314;55.040;73.076;2022-11-20T10:40:14;-10.95;67.29
72355;SHT30;60314;55.040;73.076;2022-11-20T10:42:45;-10.99;67.46
72355;SHT30;60314;55.040;73.076;2022-11-20T10:50:36;-11.01;68.00
72355;SHT30;60314;55.040;73.076;2022-11-20T10:56:05;-11.00;67.86
72355;SHT30;60314;55.040;73.076;2022-11-20T10:58:52;-11.03;67.58
72355;SHT30;60314;55.040;73.076;2022-11-20T11:01:24;-11.04;67.64
72355;SHT30;60314;55.040;73.076;2022-11-20T11:03:58;-11.06;67.59
72355;SHT30;60314;55.040;73.076;2022-11-20T11:06:36;-11.04;67.39
72355;SHT30;60314;55.040;73.076;2022-11-20T11:09:16;-11.07;67.56
72355;SHT30;60314;55.040;73.076;2022-11-20T11:11:43;-11.07;67.69
72355;SHT30;60314;55.040;73.076;2022-11-20T11:14:15;-11.07;67.66
72355;SHT30;60314;55.040;73.076;2022-11-20T11:16:53;-11.07;67.55
72355;SHT30;60314;55.040;73.076;2022-11-20T11:19:29;-11.07;67.76
72355;SHT30;60314;55.040;73.076;2022-11-20T11:22:11;-11.09;67.77
72355;SHT30;60314;55.040;73.076;2022-11-20T11:24:52;-11.06;67.60
72355;SHT30;60314;55.040;73.076;2022-11-20T11:27:18;-11.09;67.78
72355;SHT30;60314;55.040;73.076;2022-11-20T11:29:45;-11.06;68.07
72355;SHT30;60314;55.040;73.076;2022-11-20T11:32:19;-11.09;67.84
72355;SHT30;60314;55.040;73.076;2022-11-20T11:35:04;-11.07;67.84
72355;SHT30;60314;55.040;73.076;2022-11-20T11:37:34;-11.13;68.09
72355;SHT30;60314;55.040;73.076;2022-11-20T11:40:03;-11.16;68.06
72355;SHT30;60314;55.040;73.076;2022-11-20T11:42:30;-11.14;68.18
72355;SHT30;60314;55.040;73.076;2022-11-20T11:44:59;-11.16;68.53
72355;SHT30;60314;55.040;73.076;2022-11-20T11:53:07;-11.20;68.95
72355;SHT30;60314;55.040;73.076;2022-11-20T11:58:47;-11.24;69.23
72355;SHT30;60314;55.040;73.076;2022-11-20T12:04:05;-11.20;69.58
72355;SHT30;60314;55.040;73.076;2022-11-20T12:06:39;-11.20;69.32
72355;SHT30;60314;55.040;73.076;2022-11-20T12:09:10;-11.21;69.21
72355;SHT30;60314;55.040;73.076;2022-11-20T12:11:48;-11.20;68.95
72355;SHT30;60314;55.040;73.076;2022-11-20T12:14:31;-11.14;68.92
72355;SHT30;60314;55.040;73.076;2022-11-20T12:17:01;-11.11;68.93
72355;SHT30;60314;55.040;73.076;2022-11-20T12:19:34;-11.10;68.35
72355;SHT30;60314;55.040;73.076;2022-11-20T12:25:11;-11.09;68.48
72355;SHT30;60314;55.040;73.076;2022-11-20T12:28:19;-11.13;68.58
72355;SHT30;60314;55.040;73.076;2022-11-20T12:31:29;-11.11;68.58
72355;SHT30;60314;55.040;73.076;2022-11-20T12:39:55;-11.10;68.61
72355;SHT30;60314;55.040;73.076;2022-11-20T12:57:14;-11.23;68.10
72355;SHT30;60314;55.040;73.076;2022-11-20T13:08:15;-11.40;68.39
72355;SHT30;60314;55.040;73.076;2022-11-20T13:11:03;-11.48;68.52
72355;SHT30;60314;55.040;73.076;2022-11-20T13:19:16;-11.59;69.20
72355;SHT30;60314;55.040;73.076;2022-11-20T13:21:47;-11.63;69.11
72355;SHT30;60314;55.040;73.076;2022-11-20T13:26:47;-11.69;69.53
72355;SHT30;60314;55.040;73.076;2022-11-20T13:29:18;-11.82;69.12
72355;SHT30;60314;55.040;73.076;2022-11-20T13:31:50;-11.86;69.23
72355;SHT30;60314;55.040;73.076;2022-11-20T13:34:26;-11.85;69.58
72355;SHT30;60314;55.040;73.076;2022-11-20T13:36:55;-11.85;69.48
72355;SHT30;60314;55.040;73.076;2022-11-20T13:39:35;-11.85;69.68
72355;SHT30;60314;55.040;73.076;2022-11-20T13:44:42;-11.83;69.30
72355;SHT30;60314;55.040;73.076;2022-11-20T13:47:27;-11.89;69.49
72355;SHT30;60314;55.040;73.076;2022-11-20T13:50:04;-11.95;69.26
72355;SHT30;60314;55.040;73.076;2022-11-20T14:01:20;-12.02;69.53
72355;SHT30;60314;55.040;73.076;2022-11-20T14:03:48;-12.08;69.64
72355;SHT30;60314;55.040;73.076;2022-11-20T14:06:28;-12.05;69.81
72355;SHT30;60314;55.040;73.076;2022-11-20T14:08:56;-12.12;69.45
72355;SHT30;60314;55.040;73.076;2022-11-20T14:11:29;-12.14;69.62
72355;SHT30;60314;55.040;73.076;2022-11-20T14:13:59;-12.20;69.50
72355;SHT30;60314;55.040;73.076;2022-11-20T14:16:28;-12.27;69.67
72355;SHT30;60314;55.040;73.076;2022-11-20T14:18:56;-12.30;69.82
72355;SHT30;60314;55.040;73.076;2022-11-20T14:21:27;-12.30;69.75
72355;SHT30;60314;55.040;73.076;2022-11-20T14:24:04;-12.32;69.54
72355;SHT30;60314;55.040;73.076;2022-11-20T14:26:38;-12.29;69.37
72355;SHT30;60314;55.040;73.076;2022-11-20T14:29:27;-12.34;69.28
72355;SHT30;60314;55.040;73.076;2022-11-20T14:31:55;-12.26;69.18
72355;SHT30;60314;55.040;73.076;2022-11-20T14:34:29;-12.32;68.73
72355;SHT30;60314;55.040;73.076;2022-11-20T14:37:01;-12.34;68.58
72355;SHT30;60314;55.040;73.076;2022-11-20T14:39:42;-12.37;68.62
72355;SHT30;60314;55.040;73.076;2022-11-20T14:42:24;-12.38;68.54
72355;SHT30;60314;55.040;73.076;2022-11-20T14:44:55;-12.50;68.80
72355;SHT30;60314;55.040;73.076;2022-11-20T14:47:32;-12.55;69.04
72355;SHT30;60314;55.040;73.076;2022-11-20T14:50:12;-12.67;68.98
72355;SHT30;60314;55.040;73.076;2022-11-20T14:52:52;-12.79;69.35
72355;SHT30;60314;55.040;73.076;2022-11-20T14:55:37;-12.92;69.73
72355;SHT30;60314;55.040;73.076;2022-11-20T14:58:22;-12.98;69.88
72355;SHT30;60314;55.040;73.076;2022-11-20T15:01:05;-13.05;69.99
72355;SHT30;60314;55.040;73.076;2022-11-20T15:03:39;-13.05;70.44
72355;SHT30;60314;55.040;73.076;2022-11-20T15:06:10;-13.10;69.97
72355;SHT30;60314;55.040;73.076;2022-11-20T15:08:51;-13.15;70.22
72355;SHT30;60314;55.040;73.076;2022-11-20T15:11:20;-13.19;70.42
72355;SHT30;60314;55.040;73.076;2022-11-20T15:13:49;-13.24;70.36
72355;SHT30;60314;55.040;73.076;2022-11-20T15:16:21;-13.26;70.30
72355;SHT30;60314;55.040;73.076;2022-11-20T15:18:48;-13.26;70.56
72355;SHT30;60314;55.040;73.076;2022-11-20T15:21:24;-13.29;70.15
72355;SHT30;60314;55.040;73.076;2022-11-20T15:23:51;-13.30;70.06
72355;SHT30;60314;55.040;73.076;2022-11-20T15:26:25;-13.39;70.60
72355;SHT30;60314;55.040;73.076;2022-11-20T15:28:52;-13.44;70.64
72355;SHT30;60314;55.040;73.076;2022-11-20T15:31:21;-13.50;70.50
72355;SHT30;60314;55.040;73.076;2022-11-20T15:33:48;-13.51;70.68
72355;SHT30;60314;55.040;73.076;2022-11-20T15:36:19;-13.52;70.64
72355;SHT30;60314;55.040;73.076;2022-11-20T15:38:47;-13.48;70.51
72355;SHT30;60314;55.040;73.076;2022-11-20T15:41:14;-13.51;70.55
72355;SHT30;60314;55.040;73.076;2022-11-20T15:43:41;-13.51;70.30
72355;SHT30;60314;55.040;73.076;2022-11-20T15:46:15;-13.48;70.30
72355;SHT30;60314;55.040;73.076;2022-11-20T15:48:44;-13.55;70.03
72355;SHT30;60314;55.040;73.076;2022-11-20T15:51:23;-13.60;70.39
72355;SHT30;60314;55.040;73.076;2022-11-20T15:54:03;-13.68;70.36
72355;SHT30;60314;55.040;73.076;2022-11-20T15:56:35;-13.68;70.54
72355;SHT30;60314;55.040;73.076;2022-11-20T15:59:01;-13.70;70.35
72355;SHT30;60314;55.040;73.076;2022-11-20T16:01:28;-13.75;70.38
72355;SHT30;60314;55.040;73.076;2022-11-20T16:03:55;-13.79;70.16
72355;SHT30;60314;55.040;73.076;2022-11-20T16:06:21;-13.91;70.13
72355;SHT30;60314;55.040;73.076;2022-11-20T16:08:48;-14.09;70.32
72355;SHT30;60314;55.040;73.076;2022-11-20T16:11:17;-14.23;70.66
72355;SHT30;60314;55.040;73.076;2022-11-20T16:13:43;-14.33;70.98
72355;SHT30;60314;55.040;73.076;2022-11-20T16:16:31;-14.49;70.76
72355;SHT30;60314;55.040;73.076;2022-11-20T16:19:12;-14.63;71.23
72355;SHT30;60314;55.040;73.076;2022-11-20T16:21:39;-14.63;71.32
72355;SHT30;60314;55.040;73.076;2022-11-20T16:24:10;-14.75;71.41
72355;SHT30;60314;55.040;73.076;2022-11-20T16:26:39;-14.83;71.59
72355;SHT30;60314;55.040;73.076;2022-11-20T16:29:06;-14.92;71.90
72355;SHT30;60314;55.040;73.076;2022-11-20T16:31:33;-14.99;72.22
72355;SHT30;60314;55.040;73.076;2022-11-20T16:34:03;-15.05;72.53
72355;SHT30;60314;55.040;73.076;2022-11-20T16:36:30;-15.04;72.98
72355;SHT30;60314;55.040;73.076;2022-11-20T16:38:59;-14.99;73.44
72355;SHT30;60314;55.040;73.076;2022-11-20T16:41:27;-14.98;73.75
72355;SHT30;60314;55.040;73.076;2022-11-20T16:43:56;-14.87;74.33
72355;SHT30;60314;55.040;73.076;2022-11-20T16:46:30;-14.77;74.98
72355;SHT30;60314;55.040;73.076;2022-11-20T16:49:04;-14.63;75.00
72355;SHT30;60314;55.040;73.076;2022-11-20T16:51:34;-14.44;75.16
72355;SHT30;60314;55.040;73.076;2022-11-20T16:54:02;-14.33;75.02
72355;SHT30;60314;55.040;73.076;2022-11-20T16:56:29;-14.23;75.04
72355;SHT30;60314;55.040;73.076;2022-11-20T16:58:57;-14.12;74.79
72355;SHT30;60314;55.040;73.076;2022-11-20T17:01:25;-14.09;74.76
72355;SHT30;60314;55.040;73.076;2022-11-20T17:03:56;-14.01;75.02
72355;SHT30;60314;55.040;73.076;2022-11-20T17:06:34;-13.92;75.06
72355;SHT30;60314;55.040;73.076;2022-11-20T17:09:01;-13.88;75.21
72355;SHT30;60314;55.040;73.076;2022-11-20T17:11:28;-13.79;75.41
72355;SHT30;60314;55.040;73.076;2022-11-20T17:13:57;-13.67;75.28
72355;SHT30;60314;55.040;73.076;2022-11-20T17:16:25;-13.61;75.05
72355;SHT30;60314;55.040;73.076;2022-11-20T17:18:58;-13.57;75.14
72355;SHT30;60314;55.040;73.076;2022-11-20T17:21:25;-13.48;74.97